Time;durP1;ratioP1;P1;durP2;ratioP2;P2;SDS_P1;SDS_P2;PMS_P1;PMS_P2;Temp;Humidity;BMP_temperature;BMP_pressure;BME280_temperature;BME280_humidity;BME280_pressure;Samples;Min_cycle;Max_cycle;Signal;HPM_P1;HPM_P2
2021/12/10 00:01:38;;;;;;;;;10.75;8.00;;;;;5.54;77.42;99224.25;5013552;28;45537;-74
2021/12/10 00:04:04;;;;;;;;;8.75;7.50;;;;;5.53;78.02;99224.28;5015443;28;45418;-74
2021/12/10 00:06:35;;;;;;;;;9.50;6.50;;;;;5.44;77.49;99217.63;5013426;28;45526;-74
2021/12/10 00:09:17;;;;;;;;;6.75;6.75;;;;;5.34;77.66;99200.53;5001093;28;45427;-74
2021/12/10 00:11:53;;;;;;;;;9.25;8.00;;;;;5.12;78.58;99169.00;5013371;28;45357;-75
2021/12/10 00:14:23;;;;;;;;;9.25;7.50;;;;;5.39;77.97;99207.31;5010312;28;47289;-75
2021/12/10 00:16:49;;;;;;;;;8.25;8.00;;;;;5.31;78.08;99171.78;5013427;28;45431;-75
2021/12/10 00:19:37;;;;;;;;;8.75;6.50;;;;;5.42;78.46;99169.63;5012794;28;45422;-75
2021/12/10 00:22:09;;;;;;;;;12.00;7.75;;;;;5.31;78.35;99156.03;5014900;28;45440;-75
2021/12/10 00:24:39;;;;;;;;;7.25;5.75;;;;;5.45;77.69;99165.09;5014180;28;45518;-74
2021/12/10 00:27:07;;;;;;;;;9.25;5.50;;;;;5.50;77.80;99158.81;5014253;28;45453;-75
2021/12/10 00:29:36;;;;;;;;;12.25;10.50;;;;;5.52;77.68;99162.22;5011415;28;45489;-75
2021/12/10 00:32:07;;;;;;;;;9.75;7.00;;;;;5.52;78.21;99151.75;5007216;28;45462;-75
2021/12/10 00:34:40;;;;;;;;;7.00;7.00;;;;;5.53;78.45;99138.56;5012615;28;46926;-75
2021/12/10 00:37:10;;;;;;;;;8.25;6.25;;;;;5.55;77.59;99139.34;5011817;28;45606;-75
2021/12/10 00:39:40;;;;;;;;;6.75;6.50;;;;;5.55;77.64;99123.59;5014579;28;45383;-75
2021/12/10 00:42:11;;;;;;;;;7.00;7.00;;;;;5.58;77.68;99126.09;5014416;28;45489;-75
2021/12/10 00:44:37;;;;;;;;;7.00;5.50;;;;;5.59;77.87;99119.06;5013650;28;45372;-74
2021/12/10 00:47:04;;;;;;;;;5.50;2.50;;;;;5.56;78.20;99106.09;5014360;28;45497;-75
2021/12/10 00:49:29;;;;;;;;;6.75;3.00;;;;;5.58;78.05;99097.22;5012672;28;45841;-74
2021/12/10 00:51:54;;;;;;;;;8.50;4.25;;;;;5.58;78.11;99094.59;5017598;28;45387;-75
2021/12/10 00:54:20;;;;;;;;;6.75;5.25;;;;;5.41;77.44;99069.06;5009602;28;47323;-74
2021/12/10 00:56:46;;;;;;;;;4.25;4.25;;;;;5.53;78.63;99087.84;5013390;28;45368;-74
2021/12/10 00:59:13;;;;;;;;;3.00;3.00;;;;;5.05;78.34;99016.28;5014964;28;45399;-74
2021/12/10 01:01:43;;;;;;;;;3.25;3.25;;;;;5.40;78.75;99059.47;5013850;28;45292;-74
2021/12/10 01:04:15;;;;;;;;;3.00;3.00;;;;;5.39;78.82;99047.28;5011860;28;46304;-74
2021/12/10 01:06:44;;;;;;;;;4.00;4.00;;;;;5.05;78.06;98992.69;5013239;28;45615;-74
2021/12/10 01:09:15;;;;;;;;;3.00;3.00;;;;;5.51;78.75;99050.34;5014271;28;45371;-74
2021/12/10 01:11:49;;;;;;;;;3.00;3.00;;;;;5.54;78.94;99052.81;5014543;28;45324;-74
2021/12/10 01:14:24;;;;;;;;;3.00;3.00;;;;;5.55;79.08;99054.53;5010604;28;46077;-74
2021/12/10 01:25:26;;;;;;;;;4.25;4.25;;;;;5.59;78.70;99042.97;5013293;28;45645;-74
2021/12/10 01:27:52;;;;;;;;;4.25;4.25;;;;;5.47;78.85;99007.59;5013749;28;45263;-74
2021/12/10 01:30:25;;;;;;;;;3.25;3.25;;;;;5.65;78.65;99027.84;5010314;28;45723;-74
2021/12/10 01:32:57;;;;;;;;;5.75;4.00;;;;;5.60;78.91;99021.94;5006288;28;45578;-74
2021/12/10 01:35:27;;;;;;;;;5.25;3.00;;;;;5.51;78.79;99001.31;5013417;28;45750;-74
2021/12/10 01:37:55;;;;;;;;;3.00;3.00;;;;;5.66;79.70;99018.19;5014124;28;45445;-74
2021/12/10 01:40:22;;;;;;;;;4.25;4.25;;;;;5.69;79.16;99013.66;5010877;28;45518;-74
2021/12/10 01:42:52;;;;;;;;;7.75;4.25;;;;;5.72;78.81;99020.56;5012261;28;45483;-74
2021/12/10 01:45:25;;;;;;;;;5.00;3.50;;;;;5.67;78.57;99012.03;5014468;28;46140;-74
2021/12/10 01:48:09;;;;;;;;;6.50;5.50;;;;;5.59;79.08;99007.13;5001111;28;45543;-74
2021/12/10 01:50:36;;;;;;;;;5.50;4.50;;;;;5.50;79.36;98973.38;5017872;28;45517;-74
2021/12/10 01:53:06;;;;;;;;;7.00;5.00;;;;;5.68;78.81;98996.22;5021659;28;45446;-75
2021/12/10 01:55:33;;;;;;;;;6.75;4.25;;;;;5.63;78.63;98987.69;5021893;28;45360;-74
2021/12/10 01:57:59;;;;;;;;;7.00;6.00;;;;;5.53;79.62;98952.28;5013202;28;45302;-74
2021/12/10 02:00:30;;;;;;;;;6.00;3.75;;;;;5.30;78.62;98916.50;5013509;28;45537;-74
2021/12/10 02:02:56;;;;;;;;;5.00;4.00;;;;;5.59;79.20;98959.00;5011949;28;45539;-74
2021/12/10 02:05:22;;;;;;;;;10.75;7.00;;;;;5.69;79.96;98970.84;5013831;28;46630;-74
2021/12/10 02:07:48;;;;;;;;;6.75;6.50;;;;;5.35;79.80;98914.50;5013832;28;45423;-74
2021/12/10 02:10:17;;;;;;;;;3.50;3.50;;;;;5.59;79.79;98941.50;5013470;28;45212;-74
2021/12/10 02:12:42;;;;;;;;;6.50;4.25;;;;;5.59;79.32;98941.50;5015815;28;45630;-74
2021/12/10 02:15:11;;;;;;;;;2.00;2.00;;;;;5.55;79.09;98924.16;5014213;28;45614;-74
2021/12/10 02:17:39;;;;;;;;;6.00;5.00;;;;;5.54;79.64;98925.09;5015186;28;45656;-74
2021/12/10 02:20:11;;;;;;;;;4.75;4.75;;;;;5.71;80.03;98948.00;5015829;28;45456;-74
2021/12/10 02:22:38;;;;;;;;;5.00;3.00;;;;;5.70;79.35;98946.28;5016996;28;45482;-74
2021/12/10 02:25:05;;;;;;;;;4.25;2.00;;;;;5.67;79.68;98936.75;5015926;28;46149;-74
2021/12/10 02:27:32;;;;;;;;;3.50;2.00;;;;;5.48;79.29;98896.50;5016702;28;45661;-74
2021/12/10 02:29:57;;;;;;;;;3.00;3.00;;;;;5.71;80.10;98927.00;5015500;28;45538;-74
2021/12/10 02:32:24;;;;;;;;;2.00;2.00;;;;;5.72;80.33;98922.59;5016938;28;45477;-74
2021/12/10 02:34:50;;;;;;;;;2.50;1.00;;;;;5.43;79.87;98880.09;5014066;28;47377;-74
2021/12/10 02:37:16;;;;;;;;;1.75;1.75;;;;;5.69;79.87;98919.19;5009026;28;45471;-74
2021/12/10 02:39:41;;;;;;;;;1.00;1.00;;;;;5.53;79.90;98864.81;5008101;28;45332;-74
2021/12/10 02:42:07;;;;;;;;;0.75;0.75;;;;;5.63;79.83;98895.00;5016521;28;45466;-74
2021/12/10 02:44:33;;;;;;;;;2.50;0.00;;;;;5.66;79.59;98882.56;5008613;28;45514;-74
2021/12/10 02:46:59;;;;;;;;;2.00;1.00;;;;;5.51;78.80;98862.25;5013688;28;45419;-74
2021/12/10 02:49:27;;;;;;;;;0.00;0.00;;;;;5.43;79.24;98852.09;5016356;28;45482;-74
2021/12/10 02:51:53;;;;;;;;;0.00;0.00;;;;;5.57;79.16;98872.47;5013063;28;45561;-74
2021/12/10 02:54:23;;;;;;;;;0.00;0.00;;;;;5.60;78.38;98853.13;5005381;28;47542;-74
2021/12/10 02:56:50;;;;;;;;;0.25;0.25;;;;;5.62;78.54;98848.69;5012254;28;49662;-74
2021/12/10 02:59:17;;;;;;;;;0.00;0.00;;;;;5.58;79.08;98860.22;5008327;28;45385;-75
2021/12/10 03:01:46;;;;;;;;;0.00;0.00;;;;;5.55;78.56;98852.47;5014045;28;45667;-74
2021/12/10 03:04:13;;;;;;;;;1.00;0.00;;;;;5.28;78.79;98796.81;5012778;28;46530;-74
2021/12/10 03:06:52;;;;;;;;;1.00;0.00;;;;;5.44;78.29;98826.69;5014550;28;45385;-75
2021/12/10 03:09:20;;;;;;;;;1.00;0.00;;;;;5.47;78.87;98831.81;5010641;28;45660;-74
2021/12/10 03:11:48;;;;;;;;;0.00;0.00;;;;;5.46;79.08;98830.97;5014444;28;45559;-74
2021/12/10 03:14:18;;;;;;;;;1.00;0.00;;;;;5.39;78.95;98812.94;5016067;28;46162;-74
2021/12/10 03:16:45;;;;;;;;;0.00;0.00;;;;;5.41;79.28;98811.09;5008693;28;45474;-75
2021/12/10 03:19:11;;;;;;;;;1.00;0.00;;;;;5.19;78.26;98772.69;5008234;28;45511;-74
2021/12/10 03:21:44;;;;;;;;;0.00;0.00;;;;;5.30;78.48;98780.09;5013965;28;45427;-74
2021/12/10 03:24:09;;;;;;;;;0.75;0.00;;;;;5.09;77.84;98739.94;4999913;28;48082;-74
2021/12/10 03:26:35;;;;;;;;;0.00;0.00;;;;;5.18;78.89;98757.88;5014794;28;45438;-74
2021/12/10 03:29:01;;;;;;;;;0.00;0.00;;;;;5.31;79.04;98804.56;5015751;28;45678;-74
2021/12/10 03:31:28;;;;;;;;;0.00;0.00;;;;;5.20;78.74;98770.91;5015678;28;45343;-74
2021/12/10 03:33:56;;;;;;;;;0.00;0.00;;;;;5.27;78.94;98782.88;5009418;28;45312;-74
2021/12/10 03:36:22;;;;;;;;;0.00;0.00;;;;;5.13;79.45;98746.75;5013900;28;45650;-74
2021/12/10 03:38:48;;;;;;;;;0.00;0.00;;;;;5.24;78.46;98773.34;5003022;28;45340;-74
2021/12/10 03:41:16;;;;;;;;;1.25;0.00;;;;;5.26;78.62;98773.28;5015683;28;45798;-74
2021/12/10 03:43:43;;;;;;;;;0.00;0.00;;;;;5.24;78.20;98777.75;5014461;28;45609;-74
2021/12/10 03:46:09;;;;;;;;;0.25;0.00;;;;;5.17;78.57;98771.06;5013115;28;45400;-74
2021/12/10 03:48:40;;;;;;;;;0.00;0.00;;;;;5.13;79.65;98772.13;5006473;28;45367;-74
2021/12/10 03:51:09;;;;;;;;;0.00;0.00;;;;;4.95;78.34;98737.91;5014656;28;45819;-74
2021/12/10 03:53:35;;;;;;;;;0.25;0.00;;;;;5.08;78.92;98748.72;5013744;28;47409;-74
2021/12/10 03:56:05;;;;;;;;;0.00;0.00;;;;;5.16;78.94;98753.63;5010211;28;45470;-74
2021/12/10 03:58:32;;;;;;;;;0.00;0.00;;;;;5.12;78.45;98752.06;5013183;28;45426;-74
2021/12/10 04:00:58;;;;;;;;;0.00;0.00;;;;;5.11;79.59;98742.47;5014156;28;45385;-75
2021/12/10 04:03:26;;;;;;;;;1.00;0.00;;;;;5.11;79.50;98739.84;5004480;28;46138;-74
2021/12/10 04:05:52;;;;;;;;;0.00;0.00;;;;;5.07;79.21;98722.56;5015033;28;45390;-74
2021/12/10 04:08:18;;;;;;;;;0.00;0.00;;;;;5.13;79.55;98735.41;5013821;28;45619;-74
2021/12/10 04:10:45;;;;;;;;;0.00;0.00;;;;;4.75;78.54;98664.53;5014866;28;45328;-74
2021/12/10 04:13:12;;;;;;;;;0.25;0.00;;;;;5.12;79.47;98718.84;5013228;28;47006;-74
2021/12/10 04:15:38;;;;;;;;;2.00;0.00;;;;;5.07;79.75;98717.34;5013767;28;45777;-74
2021/12/10 04:18:07;;;;;;;;;0.00;0.00;;;;;5.13;79.88;98717.91;5005440;28;45433;-74
2021/12/10 04:20:33;;;;;;;;;0.00;0.00;;;;;5.14;78.91;98716.13;5014911;28;45502;-74
2021/12/10 04:23:01;;;;;;;;;1.00;0.00;;;;;5.13;78.64;98712.66;5012643;28;45453;-74
2021/12/10 04:25:27;;;;;;;;;0.00;0.00;;;;;4.86;78.77;98662.31;5014063;28;45549;-74
2021/12/10 04:27:58;;;;;;;;;0.00;0.00;;;;;5.07;79.27;98705.06;5014311;28;45392;-74
2021/12/10 04:30:25;;;;;;;;;0.00;0.00;;;;;5.00;78.94;98677.44;5012839;28;45467;-75
2021/12/10 04:32:51;;;;;;;;;0.00;0.00;;;;;5.05;79.50;98698.19;5013114;28;45967;-74
2021/12/10 04:35:18;;;;;;;;;0.25;0.25;;;;;4.96;79.04;98668.81;5010534;28;45503;-74
2021/12/10 04:37:46;;;;;;;;;0.25;0.25;;;;;5.07;78.99;98683.25;5014276;28;45245;-74
2021/12/10 04:40:17;;;;;;;;;1.00;1.00;;;;;5.08;78.50;98672.66;5015871;28;45323;-74
2021/12/10 04:42:44;;;;;;;;;4.25;0.00;;;;;4.89;79.39;98645.59;5010748;28;47553;-74
2021/12/10 04:45:10;;;;;;;;;2.00;0.00;;;;;4.92;78.71;98642.84;5022479;28;45817;-75
2021/12/10 04:47:36;;;;;;;;;1.00;1.00;;;;;5.06;79.75;98669.28;5021839;28;44892;-75
2021/12/10 04:50:05;;;;;;;;;2.00;1.00;;;;;5.09;79.14;98663.03;5016241;28;46375;-75
2021/12/10 04:52:31;;;;;;;;;2.00;0.25;;;;;4.98;78.50;98642.56;5012292;28;45571;-74
2021/12/10 04:54:56;;;;;;;;;0.00;0.00;;;;;5.04;79.76;98655.38;5012405;28;46263;-74
2021/12/10 04:57:22;;;;;;;;;0.00;0.00;;;;;4.94;78.74;98649.72;5014436;28;45431;-74
2021/12/10 04:59:47;;;;;;;;;0.00;0.00;;;;;4.93;79.42;98641.91;4998701;28;45424;-75
2021/12/10 05:02:17;;;;;;;;;0.00;0.00;;;;;5.00;78.61;98652.06;5013905;28;46608;-75
2021/12/10 05:04:44;;;;;;;;;0.25;0.00;;;;;4.99;78.05;98645.09;5012529;28;45493;-74
2021/12/10 05:07:11;;;;;;;;;0.00;0.00;;;;;4.78;79.17;98619.84;5014037;28;45494;-74
2021/12/10 05:09:37;;;;;;;;;1.00;1.00;;;;;4.75;78.37;98622.59;5013320;28;45425;-74
2021/12/10 05:12:04;;;;;;;;;0.00;0.00;;;;;4.76;78.51;98635.66;5014263;28;45436;-75
2021/12/10 05:14:31;;;;;;;;;1.00;0.00;;;;;4.67;78.88;98622.09;4999292;28;46131;-75
2021/12/10 05:17:03;;;;;;;;;0.00;0.00;;;;;4.72;78.58;98627.97;5014051;28;45294;-75
2021/12/10 05:19:29;;;;;;;;;0.75;0.00;;;;;4.76;78.98;98632.16;5013987;28;45420;-75
2021/12/10 05:21:59;;;;;;;;;0.00;0.00;;;;;4.76;79.57;98625.19;5011291;28;45614;-75
2021/12/10 05:24:25;;;;;;;;;0.00;0.00;;;;;4.76;78.49;98627.78;5012321;28;45774;-74
2021/12/10 05:26:51;;;;;;;;;6.25;0.50;;;;;4.76;79.01;98629.53;5004419;28;45477;-74
2021/12/10 05:29:17;;;;;;;;;1.50;1.50;;;;;4.68;79.38;98611.56;5010247;28;45460;-74
2021/12/10 05:31:44;;;;;;;;;1.75;1.75;;;;;4.78;78.12;98631.19;5012165;28;46126;-75
2021/12/10 05:34:10;;;;;;;;;1.00;1.00;;;;;4.80;78.43;98636.38;5006659;28;45508;-74
2021/12/10 05:36:36;;;;;;;;;1.75;1.00;;;;;4.77;78.64;98631.25;5010782;28;45431;-74
2021/12/10 05:39:04;;;;;;;;;1.00;1.00;;;;;4.71;78.54;98631.53;5013566;28;45498;-75
2021/12/10 05:41:30;;;;;;;;;1.00;1.00;;;;;4.52;78.59;98597.41;5013128;28;46092;-74
2021/12/10 05:43:55;;;;;;;;;4.00;1.00;;;;;4.53;79.15;98607.00;5000005;28;45361;-75
2021/12/10 05:46:21;;;;;;;;;1.00;1.00;;;;;4.68;78.76;98626.44;5011216;28;45525;-75
2021/12/10 05:48:46;;;;;;;;;2.00;1.00;;;;;4.61;78.20;98619.75;5017471;28;45432;-74
2021/12/10 05:51:12;;;;;;;;;1.00;1.00;;;;;4.56;79.35;98614.72;5016618;28;45537;-75
2021/12/10 05:53:37;;;;;;;;;1.00;1.00;;;;;4.58;78.62;98614.63;5009391;28;45320;-75
2021/12/10 05:56:04;;;;;;;;;0.25;0.25;;;;;4.60;79.37;98613.66;5012418;28;45448;-75
2021/12/10 05:58:30;;;;;;;;;1.00;1.00;;;;;4.60;77.81;98615.44;5007117;28;45243;-74
2021/12/10 06:01:02;;;;;;;;;0.00;0.00;;;;;4.42;78.69;98591.75;5007701;28;48486;-75
2021/12/10 06:03:29;;;;;;;;;0.00;0.00;;;;;4.52;78.02;98598.25;5015867;28;45329;-74
2021/12/10 06:05:54;;;;;;;;;0.00;0.00;;;;;4.62;78.77;98608.34;5016212;28;45457;-74
2021/12/10 06:08:20;;;;;;;;;0.00;0.00;;;;;4.50;79.30;98591.38;5017064;28;45414;-75
2021/12/10 06:10:48;;;;;;;;;0.00;0.00;;;;;4.58;78.79;98601.53;5010274;28;48195;-74
2021/12/10 06:13:14;;;;;;;;;0.00;0.00;;;;;4.59;78.46;98590.13;5013465;28;45425;-74
2021/12/10 06:15:39;;;;;;;;;0.50;0.50;;;;;4.36;78.24;98551.88;5016524;28;45389;-74
2021/12/10 06:18:06;;;;;;;;;0.75;0.75;;;;;4.57;78.90;98590.22;5012038;28;45773;-74
2021/12/10 06:20:37;;;;;;;;;5.00;0.00;;;;;4.62;79.16;98590.00;5014589;28;45547;-74
2021/12/10 06:23:03;;;;;;;;;2.00;0.75;;;;;4.63;79.77;98587.31;5007757;28;45617;-74
2021/12/10 06:25:30;;;;;;;;;0.00;0.00;;;;;4.45;78.19;98554.94;5008144;28;45535;-74
2021/12/10 06:27:56;;;;;;;;;0.75;0.75;;;;;4.67;78.45;98581.00;5009416;28;45673;-74
2021/12/10 06:30:26;;;;;;;;;3.00;0.00;;;;;4.69;78.73;98576.56;5016411;28;45515;-78
2021/12/10 06:32:54;;;;;;;;;0.50;0.50;;;;;4.41;77.76;98528.94;5001221;28;45403;-77
2021/12/10 06:35:22;;;;;;;;;0.00;0.00;;;;;4.67;78.93;98570.53;5016980;28;45399;-76
2021/12/10 06:37:48;;;;;;;;;2.00;0.00;;;;;4.53;78.79;98568.53;5004043;28;45456;-77
2021/12/10 06:40:18;;;;;;;;;1.75;0.50;;;;;4.59;78.38;98577.91;5010177;28;46185;-76
2021/12/10 06:42:44;;;;;;;;;2.00;0.00;;;;;4.52;78.95;98561.59;5016634;28;45449;-77
2021/12/10 06:45:13;;;;;;;;;0.00;0.00;;;;;4.37;78.83;98532.63;5014410;28;45475;-75
2021/12/10 06:47:40;;;;;;;;;0.75;0.75;;;;;4.32;79.34;98520.59;5016375;28;45289;-76
2021/12/10 06:50:07;;;;;;;;;7.25;4.00;;;;;4.67;79.30;98569.69;5016846;28;45976;-75
2021/12/10 06:52:32;;;;;;;;;7.00;4.50;;;;;4.67;78.93;98580.16;5015638;28;45626;-75
2021/12/10 06:54:58;;;;;;;;;5.00;3.00;;;;;4.49;79.25;98540.78;5015877;28;45466;-75
2021/12/10 06:57:23;;;;;;;;;2.00;2.00;;;;;4.67;79.02;98561.81;5015824;28;45379;-75
2021/12/10 06:59:49;;;;;;;;;2.00;2.00;;;;;4.82;79.47;98586.50;5014409;28;48166;-75
2021/12/10 07:02:14;;;;;;;;;2.00;2.00;;;;;4.83;78.98;98581.19;5016481;28;45360;-75
2021/12/10 07:04:41;;;;;;;;;2.50;1.00;;;;;4.82;78.90;98571.63;5016062;28;45366;-75
2021/12/10 07:07:10;;;;;;;;;2.00;1.00;;;;;4.86;79.66;98585.44;5015339;28;45514;-75
2021/12/10 07:09:35;;;;;;;;;5.00;2.50;;;;;4.83;79.82;98582.97;5015230;28;46361;-76
2021/12/10 07:12:02;;;;;;;;;34.75;27.00;;;;;5.00;79.68;98602.25;5015839;28;45340;-77
2021/12/10 07:14:27;;;;;;;;;29.75;21.00;;;;;4.99;80.74;98590.03;5009014;28;45694;-76
2021/12/10 07:16:53;;;;;;;;;14.75;11.00;;;;;5.09;79.55;98600.09;5008718;28;45329;-75
2021/12/10 07:19:18;;;;;;;;;10.25;6.50;;;;;4.93;79.88;98561.50;5012469;28;46802;-77
2021/12/10 07:21:44;;;;;;;;;7.25;7.25;;;;;5.03;80.32;98576.78;5004522;28;45870;-76
2021/12/10 07:24:14;;;;;;;;;7.25;4.75;;;;;5.04;80.54;98576.75;5014099;28;45479;-75
2021/12/10 07:26:40;;;;;;;;;6.25;6.25;;;;;5.10;80.49;98591.34;5012788;28;45388;-75
2021/12/10 07:29:07;;;;;;;;;18.00;18.00;;;;;5.28;80.01;98618.47;5016005;28;45526;-77
2021/12/10 07:31:33;;;;;;;;;17.00;16.25;;;;;5.31;79.84;98623.59;5012887;28;45289;-77
2021/12/10 07:34:00;;;;;;;;;15.00;11.75;;;;;5.14;80.67;98592.88;5014663;28;45402;-77
2021/12/10 07:36:26;;;;;;;;;11.75;10.25;;;;;5.39;81.42;98631.94;5009156;28;45642;-76
2021/12/10 07:38:52;;;;;;;;;15.00;9.00;;;;;5.28;81.75;98605.38;5015542;28;45440;-77
2021/12/10 07:41:18;;;;;;;;;11.25;8.00;;;;;5.45;81.68;98626.41;5029524;28;45451;-76
2021/12/10 07:43:44;;;;;;;;;12.50;11.25;;;;;5.56;81.76;98642.50;5028239;28;45409;-77
2021/12/10 07:46:12;;;;;;;;;16.75;9.00;;;;;5.61;81.57;98639.66;5026693;28;45460;-77
2021/12/10 07:48:39;;;;;;;;;18.00;12.25;;;;;5.62;82.81;98641.38;5015252;28;45353;-77
2021/12/10 07:51:10;;;;;;;;;18.00;13.00;;;;;5.52;82.51;98611.22;5013785;28;45332;-77
2021/12/10 07:53:36;;;;;;;;;14.50;12.00;;;;;5.65;82.47;98633.34;5016753;28;45382;-76
2021/12/10 07:56:03;;;;;;;;;15.25;13.00;;;;;5.85;82.62;98662.13;5014324;28;45563;-77
2021/12/10 07:58:30;;;;;;;;;16.25;12.00;;;;;5.91;82.97;98663.56;5014979;28;45912;-77
2021/12/10 08:00:55;;;;;;;;;15.75;11.00;;;;;5.91;82.56;98674.94;5007790;28;46247;-77
2021/12/10 08:03:22;;;;;;;;;18.00;16.75;;;;;5.87;82.42;98654.16;5015565;28;45335;-77
2021/12/10 08:05:48;;;;;;;;;14.75;12.50;;;;;5.92;82.28;98671.38;5012913;28;45595;-77
2021/12/10 08:08:14;;;;;;;;;12.50;11.00;;;;;6.09;81.83;98693.41;5015378;28;45584;-76
2021/12/10 08:10:42;;;;;;;;;6.75;6.00;;;;;6.00;81.86;98684.19;5012717;28;45343;-76
2021/12/10 08:13:08;;;;;;;;;16.75;10.75;;;;;5.95;82.51;98678.31;5014798;28;45410;-76
2021/12/10 08:15:34;;;;;;;;;12.25;10.25;;;;;6.16;82.08;98715.81;5025995;28;45494;-76
2021/12/10 08:18:00;;;;;;;;;10.00;7.00;;;;;6.22;81.99;98714.66;5014629;28;46024;-76
2021/12/10 08:20:29;;;;;;;;;8.00;8.00;;;;;6.19;82.55;98718.28;5016640;28;46041;-77
2021/12/10 08:22:55;;;;;;;;;7.00;6.00;;;;;6.07;81.95;98714.47;5015401;28;45396;-76
2021/12/10 08:25:22;;;;;;;;;7.00;7.00;;;;;6.24;81.69;98762.72;5014789;28;45363;-76
2021/12/10 08:27:48;;;;;;;;;9.50;8.75;;;;;6.10;81.76;98739.75;5014465;28;46452;-77
2021/12/10 08:30:16;;;;;;;;;9.75;8.50;;;;;6.25;81.57;98765.25;5014635;28;45367;-76
2021/12/10 08:32:42;;;;;;;;;10.75;8.50;;;;;6.19;82.43;98769.97;5014254;28;45584;-76
2021/12/10 08:35:11;;;;;;;;;6.75;6.00;;;;;6.20;81.57;98788.25;5015262;28;45387;-76
2021/12/10 08:37:37;;;;;;;;;12.00;8.75;;;;;6.18;81.71;98798.00;5018587;28;47566;-77
2021/12/10 08:40:05;;;;;;;;;15.50;8.75;;;;;6.34;81.66;98833.13;5005399;28;45383;-77
2021/12/10 08:42:31;;;;;;;;;10.25;9.25;;;;;6.28;81.24;98822.06;5004834;28;45453;-77
2021/12/10 08:44:56;;;;;;;;;13.75;8.00;;;;;6.24;81.77;98833.66;5028113;28;45498;-76
2021/12/10 08:47:22;;;;;;;;;12.75;8.00;;;;;6.28;80.79;98857.06;5014154;28;46189;-77
2021/12/10 08:49:47;;;;;;;;;7.75;6.00;;;;;6.18;80.94;98850.53;5014973;28;45461;-77
2021/12/10 08:52:14;;;;;;;;;11.50;7.75;;;;;6.28;80.85;98866.72;5014363;28;45516;-77
2021/12/10 08:54:40;;;;;;;;;5.50;1.00;;;;;6.09;80.18;98835.22;5014375;28;45374;-77
2021/12/10 08:57:08;;;;;;;;;1.25;0.75;;;;;6.27;80.01;98891.28;5025666;28;47686;-77
2021/12/10 08:59:36;;;;;;;;;0.00;0.00;;;;;6.15;80.55;98887.47;5011943;28;45542;-77
2021/12/10 09:02:04;;;;;;;;;4.25;2.00;;;;;6.24;80.63;98896.69;5013392;28;45388;-77
2021/12/10 09:04:32;;;;;;;;;1.00;1.00;;;;;6.08;80.93;98891.25;5013021;28;45487;-76
2021/12/10 09:07:02;;;;;;;;;0.75;0.75;;;;;6.03;80.77;98893.25;5012975;28;48485;-77
2021/12/10 09:09:30;;;;;;;;;0.25;0.25;;;;;6.10;80.34;98910.44;5014415;28;45474;-77
2021/12/10 09:11:58;;;;;;;;;0.75;0.00;;;;;6.17;80.46;98921.53;5015051;28;47897;-77
2021/12/10 09:14:29;;;;;;;;;2.25;0.75;;;;;6.20;79.51;98937.97;5014935;28;45407;-77
2021/12/10 09:16:57;;;;;;;;;1.25;0.00;;;;;6.21;80.03;98958.09;5013355;28;47803;-77
2021/12/10 09:19:22;;;;;;;;;0.00;0.00;;;;;6.07;80.47;98948.19;5013037;28;45914;-77
2021/12/10 09:21:48;;;;;;;;;0.50;0.00;;;;;6.03;80.26;98949.25;5010678;28;45475;-77
2021/12/10 09:24:17;;;;;;;;;0.00;0.00;;;;;6.12;80.60;98966.38;5016147;28;45510;-77
2021/12/10 09:26:45;;;;;;;;;0.00;0.00;;;;;6.03;79.79;98956.25;5017703;28;45560;-77
2021/12/10 09:29:14;;;;;;;;;2.00;0.00;;;;;6.00;81.01;98956.41;5018461;28;45254;-77
2021/12/10 09:31:42;;;;;;;;;1.50;1.00;;;;;6.12;80.47;98987.41;5021277;28;45561;-77
2021/12/10 09:34:10;;;;;;;;;0.00;0.00;;;;;6.20;80.04;98994.94;5017572;28;45509;-78
2021/12/10 09:36:37;;;;;;;;;0.00;0.00;;;;;6.01;80.19;98972.09;5017297;28;45446;-77
2021/12/10 09:39:05;;;;;;;;;0.00;0.00;;;;;6.19;80.48;99020.34;5014678;28;45429;-77
2021/12/10 09:41:31;;;;;;;;;2.00;0.50;;;;;6.08;80.44;98996.31;5017759;28;45476;-77
2021/12/10 09:43:56;;;;;;;;;0.00;0.00;;;;;5.98;80.11;98985.38;5017904;28;45523;-77
2021/12/10 09:46:22;;;;;;;;;0.00;0.00;;;;;6.07;79.89;99005.13;5017051;28;45468;-77
2021/12/10 09:48:48;;;;;;;;;1.50;1.00;;;;;6.10;81.15;99018.13;5017087;28;45447;-77
2021/12/10 09:51:21;;;;;;;;;1.00;0.00;;;;;6.05;80.13;99009.59;5017129;28;45463;-77
2021/12/10 09:53:49;;;;;;;;;0.00;0.00;;;;;6.19;80.60;99057.13;5015884;28;45331;-77
2021/12/10 09:56:16;;;;;;;;;1.50;0.00;;;;;5.96;80.74;99013.44;5017634;28;45999;-77
2021/12/10 09:58:42;;;;;;;;;3.00;0.00;;;;;6.20;80.17;99047.47;5017026;28;45550;-77
2021/12/10 10:01:09;;;;;;;;;0.00;0.00;;;;;6.22;80.87;99053.50;5016637;28;45454;-76
2021/12/10 10:03:38;;;;;;;;;1.75;1.00;;;;;6.19;80.91;99043.13;5017270;28;46080;-76
2021/12/10 10:06:05;;;;;;;;;2.75;0.00;;;;;6.12;80.58;99050.44;5016800;28;45987;-77
2021/12/10 10:08:32;;;;;;;;;4.75;0.75;;;;;6.28;80.31;99076.88;5016964;28;45638;-76
2021/12/10 10:11:08;;;;;;;;;1.25;1.00;;;;;6.03;80.87;99040.28;5017572;28;45327;-76
2021/12/10 10:13:38;;;;;;;;;0.50;0.50;;;;;6.29;81.23;99068.91;5017032;28;45363;-76
2021/12/10 10:16:04;;;;;;;;;7.00;2.75;;;;;6.31;80.83;99093.38;5016274;28;45994;-76
2021/12/10 10:18:33;;;;;;;;;1.75;0.00;;;;;6.32;80.03;99081.97;5016723;28;45598;-77
2021/12/10 10:21:04;;;;;;;;;2.50;0.75;;;;;6.33;80.82;99103.81;5016648;28;45497;-76
2021/12/10 10:23:29;;;;;;;;;3.00;0.50;;;;;6.24;80.33;99078.81;5013827;28;45301;-77
2021/12/10 10:26:05;;;;;;;;;6.00;1.00;;;;;6.17;80.13;99064.19;5016920;28;46015;-76
2021/12/10 10:28:31;;;;;;;;;0.00;0.00;;;;;6.30;79.54;99107.44;5016050;28;45373;-76
2021/12/10 10:31:02;;;;;;;;;1.75;0.00;;;;;6.26;79.54;99111.09;5016346;28;45578;-76
2021/12/10 10:33:31;;;;;;;;;2.00;0.75;;;;;6.10;80.23;99078.53;5014612;28;45562;-77
2021/12/10 10:36:01;;;;;;;;;0.75;0.00;;;;;6.11;80.19;99078.44;5016834;28;45589;-77
2021/12/10 10:38:28;;;;;;;;;3.00;1.50;;;;;6.35;80.03;99100.22;5023552;28;45348;-77
2021/12/10 10:40:58;;;;;;;;;5.50;1.00;;;;;6.00;80.57;99066.69;5029068;28;45377;-77
2021/12/10 10:43:25;;;;;;;;;2.25;0.00;;;;;6.21;78.99;99097.31;5017726;28;45540;-77
2021/12/10 10:45:52;;;;;;;;;3.25;1.00;;;;;6.30;80.30;99117.94;5016683;28;45406;-77
2021/12/10 10:48:18;;;;;;;;;6.00;1.75;;;;;6.40;79.54;99123.66;5011920;28;45550;-77
2021/12/10 10:50:53;;;;;;;;;1.00;1.00;;;;;6.43;79.21;99139.28;5015050;28;45332;-77
2021/12/10 10:53:21;;;;;;;;;3.75;1.00;;;;;6.43;79.44;99139.28;5012530;28;45406;-77
2021/12/10 10:56:02;;;;;;;;;2.25;1.00;;;;;6.46;79.68;99154.06;5016216;28;46055;-77
2021/12/10 10:58:33;;;;;;;;;2.25;1.00;;;;;6.38;80.05;99138.63;5015418;28;45393;-77
2021/12/10 11:01:14;;;;;;;;;2.25;1.50;;;;;6.46;79.40;99151.44;5025188;28;45596;-77
2021/12/10 11:03:46;;;;;;;;;3.75;1.50;;;;;6.50;79.84;99160.88;5015977;28;45473;-77
2021/12/10 11:06:20;;;;;;;;;3.75;2.00;;;;;6.46;79.78;99143.56;5015758;28;46074;-77
2021/12/10 11:08:50;;;;;;;;;2.25;1.50;;;;;6.53;80.13;99163.38;5016069;28;45434;-77
2021/12/10 11:11:26;;;;;;;;;8.00;2.00;;;;;6.47;79.83;99147.88;5016334;28;45421;-77
2021/12/10 11:14:02;;;;;;;;;2.00;0.25;;;;;6.52;79.99;99164.31;4999891;28;45345;-77
2021/12/10 11:16:31;;;;;;;;;1.00;0.75;;;;;6.31;80.15;99148.53;5013111;28;46058;-77
2021/12/10 11:19:03;;;;;;;;;7.75;1.25;;;;;6.44;79.20;99162.03;5014484;28;46155;-77
2021/12/10 11:21:43;;;;;;;;;3.75;1.50;;;;;6.53;79.38;99197.56;5015546;28;45517;-77
2021/12/10 11:24:34;;;;;;;;;3.00;2.00;;;;;6.41;78.74;99172.66;5026973;28;45350;-77
2021/12/10 11:27:19;;;;;;;;;1.00;1.00;;;;;6.35;78.92;99188.66;5000736;28;45923;-77
2021/12/10 11:29:56;;;;;;;;;6.75;2.00;;;;;6.28;79.21;99182.81;5015507;28;45427;-77
2021/12/10 11:32:45;;;;;;;;;3.75;2.75;;;;;6.49;80.00;99209.13;5012465;28;45472;-78
2021/12/10 11:35:10;;;;;;;;;4.00;2.00;;;;;6.50;79.07;99209.06;5015378;28;45403;-77
2021/12/10 11:38:23;;;;;;;;;1.00;1.00;;;;;6.51;78.75;99213.41;5019888;28;45371;-77
2021/12/10 11:40:57;;;;;;;;;2.50;1.00;;;;;6.53;79.67;99221.22;4999534;28;45336;-76
2021/12/10 11:49:02;;;;;;;;;2.00;2.00;;;;;6.49;78.64;99236.25;5015482;28;45967;-77
2021/12/10 11:51:36;;;;;;;;;5.00;3.00;;;;;6.53;79.71;99261.50;5026163;28;45399;-77
2021/12/10 11:54:06;;;;;;;;;2.00;1.00;;;;;6.56;79.72;99260.53;5015416;28;45422;-77
2021/12/10 11:56:41;;;;;;;;;4.75;2.00;;;;;6.48;79.50;99244.22;5014949;28;45348;-77
2021/12/10 11:59:14;;;;;;;;;7.75;2.00;;;;;6.43;79.55;99244.41;5014280;28;46098;-77